createdAt,value
2023-03-16T00:00:55.348Z,46.50
2023-03-16T00:01:57.678Z,46.53
2023-03-16T00:02:59.668Z,46.43
2023-03-16T00:04:02.186Z,46.62
2023-03-16T00:05:04.215Z,46.86
2023-03-16T00:06:06.406Z,47.33
2023-03-16T00:07:11.409Z,47.11
2023-03-16T00:08:14.076Z,47.19
2023-03-16T00:09:15.953Z,46.90
2023-03-16T00:10:18.043Z,46.71
2023-03-16T00:11:20.021Z,47.05
2023-03-16T00:12:22.676Z,47.18
2023-03-16T00:13:25.214Z,46.56
2023-03-16T00:14:27.171Z,46.69
2023-03-16T00:15:29.853Z,46.95
2023-03-16T00:16:32.124Z,47.00
2023-03-16T00:17:34.873Z,46.95
2023-03-16T00:18:38.888Z,47.23
2023-03-16T00:19:46.889Z,46.66
2023-03-16T00:21:02.157Z,46.23
2023-03-16T00:22:04.071Z,46.89
2023-03-16T00:23:06.235Z,46.87
2023-03-16T00:24:09.058Z,46.62
2023-03-16T00:25:14.426Z,47.33
2023-03-16T00:26:16.499Z,47.59
2023-03-16T00:27:18.492Z,48.15
2023-03-16T00:28:21.928Z,48.73
2023-03-16T00:29:23.847Z,49.05
2023-03-16T00:30:27.312Z,49.17
2023-03-16T00:31:29.322Z,48.97
2023-03-16T00:32:34.516Z,48.79
2023-03-16T00:33:36.724Z,48.49
2023-03-16T00:34:40.565Z,48.96
2023-03-16T00:35:49.918Z,49.36
2023-03-16T00:36:52.046Z,49.24
2023-03-16T00:37:57.359Z,49.44
2023-03-16T00:39:00.019Z,49.63
2023-03-16T00:40:01.914Z,49.65
2023-03-16T00:41:05.786Z,49.51
2023-03-16T00:42:09.397Z,49.10
2023-03-16T00:43:11.343Z,48.99
2023-03-16T00:44:13.581Z,48.83
2023-03-16T00:45:15.597Z,48.87
2023-03-16T00:46:18.299Z,49.09
2023-03-16T00:47:20.262Z,49.08
2023-03-16T00:48:24.492Z,49.19
2023-03-16T00:49:26.776Z,49.45
2023-03-16T00:50:29.390Z,49.55
2023-03-16T00:51:33.958Z,49.21
2023-03-16T00:52:36.055Z,49.05
2023-03-16T00:53:37.935Z,49.22
2023-03-16T00:54:42.833Z,49.12
2023-03-16T00:55:44.908Z,48.53
2023-03-16T00:56:46.940Z,48.85
2023-03-16T00:57:49.530Z,49.11
2023-03-16T00:58:57.618Z,49.33
2023-03-16T01:00:01.685Z,49.35
2023-03-16T01:01:06.094Z,49.21
2023-03-16T01:02:09.270Z,49.66
2023-03-16T01:03:11.264Z,50.16
2023-03-16T01:04:13.976Z,49.86
2023-03-16T01:05:16.263Z,49.65
2023-03-16T01:06:20.590Z,50.44
2023-03-16T01:07:23.138Z,50.63
2023-03-16T01:08:28.101Z,50.57
2023-03-16T01:09:30.098Z,51.22
2023-03-16T01:10:33.721Z,50.34
2023-03-16T01:11:35.659Z,50.00
2023-03-16T01:12:37.708Z,50.72
2023-03-16T01:13:40.467Z,51.07
2023-03-16T01:14:45.891Z,50.86
2023-03-16T01:15:51.265Z,50.52
2023-03-16T01:16:53.253Z,51.07
2023-03-16T01:17:55.499Z,51.31
2023-03-16T01:18:57.677Z,51.52
2023-03-16T01:19:59.595Z,51.06
2023-03-16T01:21:03.532Z,51.12
2023-03-16T01:22:09.910Z,50.69
2023-03-16T01:23:13.029Z,50.87
2023-03-16T01:24:14.904Z,50.87
2023-03-16T01:25:18.378Z,50.40
2023-03-16T01:26:22.566Z,50.39
2023-03-16T01:27:26.299Z,51.58
2023-03-16T01:28:30.310Z,51.54
2023-03-16T01:29:33.108Z,51.45
2023-03-16T01:30:35.816Z,52.12
2023-03-16T01:31:39.217Z,52.31
2023-03-16T01:32:42.005Z,52.15
2023-03-16T01:33:47.260Z,52.76
2023-03-16T01:34:49.661Z,52.59
2023-03-16T01:35:56.786Z,52.72
2023-03-16T01:37:00.015Z,52.86
2023-03-16T01:38:02.429Z,53.25
2023-03-16T01:39:05.133Z,53.27
2023-03-16T01:40:09.081Z,53.77
2023-03-16T01:41:12.071Z,53.31
2023-03-16T01:42:14.454Z,53.52
2023-03-16T01:43:16.525Z,53.19
2023-03-16T01:44:24.329Z,53.64
2023-03-16T01:45:57.462Z,54.18
2023-03-16T01:46:59.673Z,54.47
2023-03-16T01:48:01.887Z,54.60
2023-03-16T01:49:35.978Z,55.37
2023-03-16T01:50:38.152Z,54.53
2023-03-16T01:51:56.376Z,54.41
2023-03-16T01:52:58.932Z,54.70
2023-03-16T01:54:15.093Z,55.35
2023-03-16T01:55:18.375Z,55.55
2023-03-16T01:56:27.488Z,56.18
2023-03-16T01:57:37.443Z,55.91
2023-03-16T01:58:41.860Z,55.90
2023-03-16T01:59:59.091Z,55.75
2023-03-16T02:01:01.482Z,54.69
2023-03-16T02:02:04.127Z,55.38
2023-03-16T02:03:13.871Z,55.21
2023-03-16T02:04:38.013Z,55.99
2023-03-16T02:05:50.331Z,56.48
2023-03-16T02:06:54.519Z,56.03
2023-03-16T02:07:59.202Z,56.53
2023-03-16T02:09:02.582Z,56.73
2023-03-16T02:10:06.883Z,56.68
2023-03-16T02:11:09.800Z,56.45
2023-03-16T02:12:18.343Z,56.43
2023-03-16T02:13:22.766Z,56.08
2023-03-16T02:14:24.930Z,56.09
2023-03-16T02:15:27.462Z,55.86
2023-03-16T02:16:29.446Z,56.01
2023-03-16T02:17:34.052Z,56.62
2023-03-16T02:18:36.656Z,56.71
2023-03-16T02:19:38.849Z,56.52
2023-03-16T02:20:52.328Z,56.66
2023-03-16T02:22:03.388Z,55.85
2023-03-16T02:23:08.884Z,55.42
2023-03-16T02:24:11.186Z,55.14
2023-03-16T02:25:17.044Z,55.58
2023-03-16T02:26:31.957Z,55.53
2023-03-16T02:27:39.905Z,55.43
2023-03-16T02:28:52.503Z,55.28
2023-03-16T02:30:11.798Z,55.42
2023-03-16T02:31:17.213Z,55.65
2023-03-16T02:32:21.524Z,56.04
2023-03-16T02:33:25.339Z,56.28
2023-03-16T02:34:28.521Z,57.40
2023-03-16T02:35:31.379Z,57.36
2023-03-16T02:36:34.602Z,57.65
2023-03-16T02:37:36.620Z,57.65
2023-03-16T02:38:39.040Z,57.27
2023-03-16T02:39:44.105Z,57.36
2023-03-16T02:40:58.192Z,57.68
2023-03-16T02:42:02.172Z,57.01
2023-03-16T02:43:09.433Z,56.74
2023-03-16T02:44:24.345Z,57.32
2023-03-16T02:45:33.561Z,57.80
2023-03-16T02:46:36.978Z,57.78
2023-03-16T02:47:43.931Z,57.51
2023-03-16T02:49:07.075Z,56.76
2023-03-16T02:50:12.554Z,56.97
2023-03-16T02:51:16.018Z,56.70
2023-03-16T02:52:18.261Z,56.98
2023-03-16T02:53:21.708Z,57.36
2023-03-16T02:54:24.515Z,57.96
2023-03-16T02:55:26.843Z,59.07
2023-03-16T02:56:28.903Z,58.90
2023-03-16T02:57:31.766Z,59.21
2023-03-16T02:58:34.844Z,59.61
2023-03-16T02:59:39.618Z,59.83
2023-03-16T03:00:45.620Z,60.41
2023-03-16T03:01:48.694Z,60.40
2023-03-16T03:02:52.611Z,60.48
2023-03-16T03:03:54.604Z,60.64
2023-03-16T03:04:56.624Z,60.71
2023-03-16T03:06:01.675Z,60.38
2023-03-16T03:07:05.489Z,60.37
2023-03-16T03:08:08.590Z,61.57
2023-03-16T03:09:13.414Z,61.71
2023-03-16T03:10:15.999Z,61.12
2023-03-16T03:11:21.449Z,60.84
2023-03-16T03:12:23.540Z,60.96
2023-03-16T03:13:25.603Z,60.96
2023-03-16T03:14:28.568Z,60.29
2023-03-16T03:15:30.463Z,60.28
2023-03-16T03:16:33.322Z,60.78
2023-03-16T03:17:35.296Z,60.93
2023-03-16T03:18:37.449Z,61.87
2023-03-16T03:19:39.363Z,62.05
2023-03-16T03:20:41.569Z,62.22
2023-03-16T03:21:45.203Z,62.09
2023-03-16T03:22:52.778Z,61.71
2023-03-16T03:23:55.021Z,61.50
2023-03-16T03:24:56.924Z,61.41
2023-03-16T03:25:59.906Z,61.42
2023-03-16T03:27:05.975Z,61.30
2023-03-16T03:28:11.444Z,61.82
2023-03-16T03:29:13.575Z,62.20
2023-03-16T03:30:21.825Z,61.83
2023-03-16T03:31:23.794Z,62.38
2023-03-16T03:32:26.363Z,61.87
2023-03-16T03:33:29.010Z,62.01
2023-03-16T03:34:32.779Z,61.80
2023-03-16T03:35:34.894Z,62.02
2023-03-16T03:36:36.854Z,62.17
2023-03-16T03:37:42.511Z,62.17
2023-03-16T03:38:44.453Z,62.16
2023-03-16T03:39:48.388Z,62.01
2023-03-16T03:40:52.063Z,62.42
2023-03-16T03:41:54.660Z,62.53
2023-03-16T03:42:57.031Z,62.80
2023-03-16T03:44:00.419Z,63.07
2023-03-16T03:45:03.130Z,62.79
2023-03-16T03:46:05.341Z,62.90
2023-03-16T03:47:07.798Z,62.13
2023-03-16T03:48:10.265Z,61.94
2023-03-16T03:49:12.551Z,61.88
2023-03-16T03:50:14.596Z,61.93
2023-03-16T03:51:17.922Z,62.03
2023-03-16T03:52:19.993Z,61.47
2023-03-16T03:53:23.562Z,61.16
2023-03-16T03:54:27.764Z,61.58
2023-03-16T03:55:30.033Z,61.72
2023-03-16T03:56:31.950Z,61.73
2023-03-16T03:57:34.262Z,61.47
2023-03-16T03:58:36.975Z,62.24
2023-03-16T03:59:43.608Z,62.02
2023-03-16T04:00:45.962Z,62.31
2023-03-16T04:01:49.158Z,63.01
2023-03-16T04:02:51.622Z,63.07
2023-03-16T04:03:54.266Z,62.91
2023-03-16T04:04:56.243Z,62.43
2023-03-16T04:05:58.357Z,62.17
2023-03-16T04:07:01.837Z,62.00
2023-03-16T04:08:04.318Z,63.00
2023-03-16T04:09:06.192Z,63.12
2023-03-16T04:10:09.390Z,62.72
2023-03-16T04:11:12.013Z,62.55
2023-03-16T04:12:14.541Z,62.74
2023-03-16T04:13:16.401Z,62.90
2023-03-16T04:14:18.389Z,62.98
2023-03-16T04:15:20.311Z,62.94
2023-03-16T04:16:22.849Z,63.06
2023-03-16T04:17:26.836Z,62.89
2023-03-16T04:18:42.735Z,62.45
2023-03-16T04:19:44.865Z,62.68
2023-03-16T04:20:46.851Z,63.20
2023-03-16T04:21:50.036Z,62.94
2023-03-16T04:22:58.492Z,62.76
2023-03-16T04:24:04.784Z,62.89
2023-03-16T04:25:07.552Z,63.49
2023-03-16T04:26:12.108Z,62.82
2023-03-16T04:27:16.338Z,62.82
2023-03-16T04:28:18.970Z,62.89
2023-03-16T04:29:21.558Z,62.93
2023-03-16T04:30:23.562Z,63.29
2023-03-16T04:31:26.359Z,63.92
2023-03-16T04:32:28.371Z,63.52
2023-03-16T04:33:32.363Z,63.05
2023-03-16T04:34:34.785Z,62.99
2023-03-16T04:35:37.255Z,63.09
2023-03-16T04:36:39.712Z,63.30
2023-03-16T04:37:41.613Z,63.37
2023-03-16T04:38:43.867Z,63.48
2023-03-16T04:39:45.951Z,63.97
2023-03-16T04:40:48.748Z,64.53
2023-03-16T04:41:51.520Z,65.12
2023-03-16T04:42:54.081Z,64.84
2023-03-16T04:43:57.753Z,65.14
2023-03-16T04:45:00.012Z,64.89
2023-03-16T04:46:03.956Z,64.80
2023-03-16T04:47:06.425Z,65.00
2023-03-16T04:48:09.959Z,65.79
2023-03-16T04:49:12.510Z,65.99
2023-03-16T04:50:14.956Z,65.13
2023-03-16T04:51:17.573Z,65.32
2023-03-16T04:52:20.041Z,65.47
2023-03-16T04:53:22.616Z,65.72
2023-03-16T04:54:26.510Z,65.76
2023-03-16T04:55:28.814Z,66.38
2023-03-16T04:56:31.089Z,66.17
2023-03-16T04:57:35.040Z,65.82
2023-03-16T04:58:37.239Z,65.93
2023-03-16T04:59:40.581Z,65.48
2023-03-16T05:00:43.424Z,65.37
2023-03-16T05:01:46.176Z,65.01
2023-03-16T05:02:49.304Z,65.34
2023-03-16T05:03:52.996Z,65.50
2023-03-16T05:04:55.501Z,65.17
2023-03-16T05:05:57.539Z,65.16
2023-03-16T05:06:59.973Z,64.94
2023-03-16T05:08:02.395Z,64.94
2023-03-16T05:09:06.174Z,65.01
2023-03-16T05:10:11.151Z,70.29
2023-03-16T05:11:13.619Z,65.10
2023-03-16T05:12:17.345Z,64.67
2023-03-16T05:13:19.633Z,64.54
2023-03-16T05:14:21.940Z,64.64
2023-03-16T05:15:25.001Z,64.68
2023-03-16T05:16:29.827Z,73.73
2023-03-16T05:17:32.534Z,65.03
2023-03-16T05:18:34.640Z,65.22
2023-03-16T05:19:36.666Z,64.99
2023-03-16T05:20:39.112Z,65.13
2023-03-16T05:21:41.118Z,65.53
2023-03-16T05:22:45.475Z,65.58
2023-03-16T05:23:47.701Z,65.33
2023-03-16T05:24:49.690Z,65.19
2023-03-16T05:25:52.164Z,64.85
2023-03-16T05:26:54.461Z,65.51
2023-03-16T05:27:57.627Z,65.29
2023-03-16T05:29:01.355Z,65.60
2023-03-16T05:30:04.798Z,66.00
2023-03-16T05:31:07.364Z,65.38
2023-03-16T05:32:10.656Z,65.01
2023-03-16T05:33:13.129Z,64.82
2023-03-16T05:34:15.354Z,64.36
2023-03-16T05:35:17.736Z,64.41
2023-03-16T05:36:20.949Z,65.63
2023-03-16T05:37:24.242Z,66.07
2023-03-16T05:38:27.630Z,66.29
2023-03-16T05:39:31.010Z,66.22
2023-03-16T05:40:33.357Z,65.78
2023-03-16T05:41:36.250Z,65.17
2023-03-16T05:42:38.488Z,65.50
2023-03-16T05:43:40.900Z,64.94
2023-03-16T05:44:44.922Z,59.85
2023-03-16T05:45:47.774Z,54.98
2023-03-16T05:46:50.720Z,50.75
2023-03-16T05:47:53.398Z,47.59
2023-03-16T05:48:55.667Z,44.64
2023-03-16T05:49:58.170Z,42.76
2023-03-16T05:51:01.435Z,41.23
2023-03-16T05:52:04.256Z,40.29
2023-03-16T05:53:09.017Z,38.87
2023-03-16T05:54:11.086Z,37.28
2023-03-16T05:55:15.781Z,36.83
2023-03-16T05:56:18.154Z,36.51
2023-03-16T05:57:20.550Z,36.48
2023-03-16T05:58:22.878Z,37.48
2023-03-16T05:59:25.104Z,38.63
2023-03-16T06:00:29.954Z,40.32
2023-03-16T06:01:34.203Z,42.53
2023-03-16T06:02:37.728Z,44.22
2023-03-16T06:03:40.165Z,46.16
2023-03-16T06:04:42.440Z,46.85
2023-03-16T06:05:44.776Z,46.31
2023-03-16T06:06:47.023Z,46.13
2023-03-16T06:07:50.268Z,45.73
2023-03-16T06:08:52.988Z,45.65
2023-03-16T06:09:55.527Z,46.45
2023-03-16T06:10:57.497Z,47.53
2023-03-16T06:11:59.726Z,49.04
2023-03-16T06:13:02.033Z,49.51
2023-03-16T06:14:04.098Z,48.62
2023-03-16T06:15:07.948Z,48.86
2023-03-16T06:16:13.769Z,49.94
2023-03-16T06:17:15.984Z,49.17
2023-03-16T06:18:18.148Z,47.59
2023-03-16T06:19:20.348Z,47.04
2023-03-16T06:20:22.918Z,47.32
2023-03-16T06:21:25.000Z,47.16
2023-03-16T06:22:28.208Z,46.29
2023-03-16T06:23:30.159Z,46.06
2023-03-16T06:24:32.854Z,46.16
2023-03-16T06:25:34.758Z,45.71
2023-03-16T06:26:37.957Z,44.51
2023-03-16T06:27:42.496Z,44.93
2023-03-16T06:28:44.764Z,45.14
2023-03-16T06:29:47.651Z,44.70
2023-03-16T06:30:54.045Z,44.62
2023-03-16T06:31:57.132Z,43.67
2023-03-16T06:33:00.364Z,42.75
2023-03-16T06:34:02.764Z,43.88
2023-03-16T06:35:06.060Z,44.57
2023-03-16T06:36:08.833Z,44.71
2023-03-16T06:37:11.174Z,44.59
2023-03-16T06:38:14.322Z,43.18
2023-03-16T06:39:17.188Z,47.21
2023-03-16T06:40:20.503Z,63.23
2023-03-16T06:41:22.680Z,71.18
2023-03-16T06:42:24.608Z,62.08
2023-03-16T06:43:26.878Z,41.18
2023-03-16T06:44:29.219Z,39.17
2023-03-16T06:45:31.510Z,38.71
2023-03-16T06:46:33.527Z,38.52
2023-03-16T06:47:35.849Z,38.57
2023-03-16T06:48:38.781Z,39.51
2023-03-16T06:49:40.798Z,39.14
2023-03-16T06:50:46.654Z,38.79
2023-03-16T06:51:54.144Z,38.08
2023-03-16T06:52:57.416Z,37.75
2023-03-16T06:54:00.080Z,37.67
2023-03-16T06:55:02.130Z,37.39
2023-03-16T06:56:05.430Z,38.19
2023-03-16T06:57:08.745Z,37.64
2023-03-16T06:58:11.786Z,37.27
2023-03-16T06:59:14.088Z,37.29
2023-03-16T07:00:16.428Z,37.68
2023-03-16T07:01:18.428Z,37.15
2023-03-16T07:02:22.397Z,37.08
2023-03-16T07:03:24.520Z,37.02
2023-03-16T07:04:27.985Z,36.67
2023-03-16T07:05:30.234Z,36.83
2023-03-16T07:06:32.960Z,36.53
2023-03-16T07:07:34.918Z,37.09
2023-03-16T07:08:36.908Z,37.18
2023-03-16T07:09:41.645Z,36.95
2023-03-16T07:10:44.050Z,37.47
2023-03-16T07:11:45.894Z,37.15
2023-03-16T07:12:47.837Z,37.20
2023-03-16T07:13:49.799Z,36.62
2023-03-16T07:14:54.238Z,36.32
2023-03-16T07:15:56.832Z,35.97
2023-03-16T07:16:58.933Z,35.45
2023-03-16T07:18:01.190Z,35.34
2023-03-16T07:19:03.703Z,35.11
2023-03-16T07:20:10.289Z,34.92
2023-03-16T07:21:12.331Z,34.96
2023-03-16T07:22:14.571Z,35.28
2023-03-16T07:23:16.573Z,34.94
2023-03-16T07:24:18.774Z,34.53
2023-03-16T07:25:21.415Z,34.14
2023-03-16T07:26:23.846Z,33.71
2023-03-16T07:27:26.315Z,33.76
2023-03-16T07:28:29.700Z,33.52
2023-03-16T07:29:34.230Z,32.81
2023-03-16T07:30:38.153Z,33.04
2023-03-16T07:31:40.528Z,60.62
2023-03-16T07:32:43.340Z,35.30
2023-03-16T07:33:45.536Z,31.76
2023-03-16T07:34:48.350Z,32.75
2023-03-16T07:35:52.061Z,32.86
2023-03-16T07:36:54.036Z,33.12
2023-03-16T07:37:56.352Z,33.04
2023-03-16T07:38:58.936Z,32.47
2023-03-16T07:40:01.280Z,33.05
2023-03-16T07:41:08.573Z,33.45
2023-03-16T07:42:12.782Z,33.28
2023-03-16T07:43:19.361Z,32.49
2023-03-16T07:44:25.176Z,48.36
2023-03-16T07:45:29.488Z,38.38
2023-03-16T07:46:32.773Z,33.51
2023-03-16T07:47:35.506Z,52.18
2023-03-16T07:48:43.957Z,34.60
2023-03-16T07:49:46.670Z,32.77
2023-03-16T07:50:49.416Z,33.32
2023-03-16T07:51:51.859Z,31.79
2023-03-16T07:52:54.468Z,32.18
2023-03-16T07:53:56.567Z,31.82
2023-03-16T07:54:59.166Z,31.76
2023-03-16T07:56:01.656Z,31.49
2023-03-16T07:57:06.401Z,31.59
2023-03-16T07:58:11.173Z,31.98
2023-03-16T07:59:13.354Z,32.22
2023-03-16T08:00:16.718Z,31.45
2023-03-16T08:01:19.666Z,31.95
2023-03-16T08:02:23.297Z,31.30
2023-03-16T08:03:30.148Z,31.24
2023-03-16T08:04:32.430Z,31.97
2023-03-16T08:05:34.714Z,31.87
2023-03-16T08:06:37.102Z,31.04
2023-03-16T08:07:39.058Z,30.44
2023-03-16T08:08:43.094Z,30.58
2023-03-16T08:09:45.495Z,31.14
2023-03-16T08:10:52.646Z,30.37
2023-03-16T08:11:55.355Z,30.63
2023-03-16T08:12:57.508Z,31.72
2023-03-16T08:13:59.586Z,31.75
2023-03-16T08:15:03.082Z,31.05
2023-03-16T08:16:10.414Z,30.36
2023-03-16T08:17:13.387Z,30.20
2023-03-16T08:18:15.620Z,30.66
2023-03-16T08:19:20.269Z,30.27
2023-03-16T08:20:22.574Z,30.75
2023-03-16T08:21:24.994Z,31.24
2023-03-16T08:22:28.585Z,30.81
2023-03-16T08:23:30.726Z,30.29
2023-03-16T08:24:33.239Z,30.68
2023-03-16T08:25:35.854Z,29.23
2023-03-16T08:26:39.568Z,28.79
2023-03-16T08:27:42.966Z,28.39
2023-03-16T08:28:46.465Z,28.29
2023-03-16T08:29:52.444Z,28.65
2023-03-16T08:30:55.606Z,29.37
2023-03-16T08:31:58.357Z,28.41
2023-03-16T08:33:03.258Z,28.90
2023-03-16T08:34:05.506Z,28.08
2023-03-16T08:35:14.290Z,28.32
2023-03-16T08:36:18.011Z,28.44
2023-03-16T08:37:22.118Z,29.80
2023-03-16T08:38:27.089Z,29.16
2023-03-16T08:39:29.612Z,28.47
2023-03-16T08:40:34.904Z,28.37
2023-03-16T08:41:37.817Z,28.37
2023-03-16T08:42:41.534Z,29.35
2023-03-16T08:43:44.767Z,29.04
2023-03-16T08:44:51.032Z,28.86
2023-03-16T08:45:53.951Z,28.78
2023-03-16T08:46:56.856Z,28.56
2023-03-16T08:47:59.818Z,28.56
2023-03-16T08:49:29.409Z,28.33
2023-03-16T08:50:33.647Z,28.33
2023-03-16T08:51:35.728Z,28.56
2023-03-16T08:52:37.659Z,28.71
2023-03-16T08:53:39.590Z,27.78
2023-03-16T08:54:49.707Z,27.99
2023-03-16T08:56:05.034Z,28.96
2023-03-16T08:57:07.035Z,28.10
2023-03-16T08:58:10.782Z,28.50
2023-03-16T08:59:23.610Z,28.87
2023-03-16T09:00:31.207Z,27.84
2023-03-16T09:01:34.990Z,28.58
2023-03-16T09:02:38.740Z,29.21
2023-03-16T09:03:42.326Z,28.23
2023-03-16T09:04:44.415Z,27.89
2023-03-16T09:05:46.966Z,28.01
2023-03-16T09:07:05.862Z,28.97
2023-03-16T09:08:10.151Z,28.40
2023-03-16T09:09:12.134Z,28.00
2023-03-16T09:10:16.353Z,28.14
2023-03-16T09:11:19.869Z,27.32
2023-03-16T09:12:23.472Z,27.29
2023-03-16T09:13:26.009Z,26.72
2023-03-16T09:14:28.013Z,27.92
2023-03-16T09:15:30.001Z,27.41
2023-03-16T09:16:32.020Z,25.90
2023-03-16T09:17:34.732Z,25.73
2023-03-16T09:18:36.764Z,26.33
2023-03-16T09:19:57.709Z,25.96
2023-03-16T09:21:02.508Z,25.80
2023-03-16T09:22:04.380Z,25.90
2023-03-16T09:23:06.557Z,26.13
2023-03-16T09:24:08.972Z,26.02
2023-03-16T09:25:11.383Z,25.44
2023-03-16T09:26:14.871Z,25.30
2023-03-16T09:27:17.919Z,24.50
2023-03-16T09:28:22.075Z,24.79
2023-03-16T09:29:24.588Z,25.17
2023-03-16T09:30:26.881Z,24.69
2023-03-16T09:31:28.988Z,25.00
2023-03-16T09:32:31.174Z,25.64
2023-03-16T09:33:34.381Z,25.48
2023-03-16T09:34:36.256Z,25.30
2023-03-16T09:35:38.316Z,25.51
2023-03-16T09:36:40.906Z,25.57
2023-03-16T09:38:04.372Z,24.69
2023-03-16T09:39:04.986Z,24.08
2023-03-16T09:40:12.012Z,24.11
2023-03-16T09:41:39.139Z,24.30
2023-03-16T09:42:50.202Z,24.25
2023-03-16T09:44:16.427Z,24.73
2023-03-16T09:45:33.021Z,23.97
2023-03-16T09:46:43.693Z,24.24
2023-03-16T09:47:49.674Z,25.26
2023-03-16T09:48:52.234Z,24.13
2023-03-16T09:50:02.322Z,24.17
2023-03-16T09:51:08.501Z,23.91
2023-03-16T09:52:34.071Z,23.30
2023-03-16T09:53:39.341Z,23.01
2023-03-16T09:55:00.054Z,23.38
2023-03-16T09:56:10.057Z,22.76
2023-03-16T09:57:26.066Z,22.25
2023-03-16T09:58:28.399Z,22.20
2023-03-16T09:59:30.374Z,23.13
2023-03-16T10:00:39.950Z,23.86
2023-03-16T10:01:53.850Z,24.53
2023-03-16T10:03:08.221Z,24.62
2023-03-16T10:04:29.354Z,24.56
2023-03-16T10:05:32.933Z,24.87
2023-03-16T10:06:44.189Z,25.50
2023-03-16T10:08:02.004Z,25.23
2023-03-16T10:09:17.104Z,26.42
2023-03-16T10:10:42.178Z,25.18
2023-03-16T10:11:52.850Z,24.80
2023-03-16T10:13:00.234Z,25.14
2023-03-16T10:14:02.559Z,24.74
2023-03-16T10:15:13.587Z,25.26
2023-03-16T10:16:41.151Z,25.73
2023-03-16T10:18:07.152Z,24.91
2023-03-16T10:19:23.365Z,24.71
2023-03-16T10:20:28.158Z,25.53
2023-03-16T10:21:34.310Z,24.32
2023-03-16T10:22:42.801Z,24.33
2023-03-16T10:23:47.154Z,24.32
2023-03-16T10:25:17.088Z,24.17
2023-03-16T10:26:26.207Z,24.99
2023-03-16T10:27:33.658Z,24.19
2023-03-16T10:28:37.632Z,24.25
2023-03-16T10:29:39.563Z,24.42
2023-03-16T10:30:43.011Z,24.01
2023-03-16T10:31:45.911Z,24.02
2023-03-16T10:32:48.358Z,24.90
2023-03-16T10:34:02.604Z,24.37
2023-03-16T10:35:20.974Z,24.61
2023-03-16T10:36:33.588Z,24.43
2023-03-16T10:37:35.916Z,23.78
2023-03-16T10:38:40.896Z,24.22
2023-03-16T10:39:45.772Z,24.67
2023-03-16T10:40:47.729Z,24.04
2023-03-16T10:41:57.947Z,24.34
2023-03-16T10:43:26.041Z,23.54
2023-03-16T10:44:30.041Z,24.12
2023-03-16T10:45:35.923Z,23.44
2023-03-16T10:46:48.645Z,23.67
2023-03-16T10:47:51.251Z,23.46
2023-03-16T10:48:54.866Z,22.94
2023-03-16T10:49:56.832Z,23.57
2023-03-16T10:51:03.949Z,24.04
2023-03-16T10:52:44.230Z,23.68
2023-03-16T10:53:47.740Z,24.12
2023-03-16T10:54:58.321Z,23.51
2023-03-16T10:56:11.754Z,23.38
2023-03-16T10:57:22.785Z,23.23
2023-03-16T10:58:33.806Z,22.78
2023-03-16T10:59:37.119Z,23.40
2023-03-16T11:00:43.502Z,22.95
2023-03-16T11:01:50.019Z,23.24
2023-03-16T11:02:57.107Z,24.23
2023-03-16T11:03:59.130Z,23.80
2023-03-16T11:05:19.369Z,23.52
2023-03-16T11:06:30.698Z,23.92
2023-03-16T11:07:34.760Z,24.13
2023-03-16T11:08:38.954Z,23.74
2023-03-16T11:09:40.904Z,24.82
2023-03-16T11:10:55.600Z,24.57
2023-03-16T11:11:58.181Z,23.85
2023-03-16T11:13:11.373Z,23.29
2023-03-16T11:14:15.559Z,22.69
2023-03-16T11:15:25.764Z,22.35
2023-03-16T11:16:39.576Z,22.49
2023-03-16T11:17:49.776Z,22.71
2023-03-16T11:19:09.352Z,23.27
2023-03-16T11:20:19.229Z,23.44
2023-03-16T11:21:38.800Z,22.36
2023-03-16T11:22:48.482Z,22.00
2023-03-16T11:23:55.160Z,21.63
2023-03-16T11:25:04.291Z,22.25
2023-03-16T11:26:17.626Z,22.18
2023-03-16T11:27:34.023Z,21.87
2023-03-16T11:28:48.721Z,22.71
2023-03-16T11:30:09.800Z,22.40
2023-03-16T11:31:14.858Z,21.81
2023-03-16T11:32:22.505Z,22.36
2023-03-16T11:33:27.349Z,22.29
2023-03-16T11:34:31.295Z,22.40
2023-03-16T11:35:38.423Z,22.21
2023-03-16T11:36:51.601Z,21.75
2023-03-16T11:38:31.468Z,21.73
2023-03-16T11:39:42.984Z,21.15
2023-03-16T11:41:01.553Z,21.56
2023-03-16T11:42:19.001Z,22.48
2023-03-16T11:43:39.293Z,21.80
2023-03-16T11:44:50.680Z,21.96
2023-03-16T11:45:58.447Z,21.72
2023-03-16T11:47:01.011Z,21.26
2023-03-16T11:48:18.112Z,21.65
2023-03-16T11:49:29.164Z,22.75
2023-03-16T11:50:44.723Z,21.50
2023-03-16T11:52:05.224Z,21.90
2023-03-16T11:53:24.643Z,20.71
2023-03-16T11:54:32.716Z,21.29
2023-03-16T11:56:13.052Z,21.20
2023-03-16T11:57:52.584Z,20.71
2023-03-16T11:59:00.740Z,21.25
2023-03-16T12:00:17.152Z,20.72
2023-03-16T12:01:25.763Z,19.25
2023-03-16T12:02:51.319Z,19.93
2023-03-16T12:04:14.920Z,20.04
2023-03-16T12:05:16.978Z,19.96
2023-03-16T12:06:32.454Z,20.30
2023-03-16T12:08:19.044Z,20.05
2023-03-16T12:09:26.691Z,20.32
2023-03-16T12:10:38.367Z,20.75
2023-03-16T12:11:55.100Z,21.44
2023-03-16T12:13:20.096Z,19.46
2023-03-16T12:14:31.351Z,18.64
2023-03-16T12:15:40.208Z,19.04
2023-03-16T12:16:51.445Z,20.19
2023-03-16T12:17:57.596Z,20.18
2023-03-16T12:19:03.859Z,20.05
2023-03-16T12:20:20.056Z,19.61
2023-03-16T12:21:28.159Z,18.73
2023-03-16T12:22:37.388Z,18.94
2023-03-16T12:23:49.641Z,20.20
2023-03-16T12:24:51.603Z,19.36
2023-03-16T12:25:53.684Z,18.92
2023-03-16T12:26:58.402Z,18.64
2023-03-16T12:28:05.482Z,18.58
2023-03-16T12:29:48.411Z,19.72
2023-03-16T12:30:50.602Z,19.22
2023-03-16T12:31:58.175Z,19.09
2023-03-16T12:33:27.111Z,19.69
2023-03-16T12:34:50.261Z,19.56
2023-03-16T12:35:56.577Z,19.74
2023-03-16T12:37:19.832Z,19.55
2023-03-16T12:38:28.619Z,20.11
2023-03-16T12:39:43.289Z,19.79
2023-03-16T12:41:26.349Z,20.05
2023-03-16T12:42:47.097Z,18.90
2023-03-16T12:44:13.165Z,18.87
2023-03-16T12:45:31.918Z,19.19
2023-03-16T12:46:53.498Z,19.06
2023-03-16T12:48:08.048Z,19.20
2023-03-16T12:49:10.485Z,19.98
2023-03-16T12:50:19.827Z,19.81
2023-03-16T12:51:33.062Z,19.65
2023-03-16T12:52:43.320Z,19.35
2023-03-16T12:53:51.712Z,19.03
2023-03-16T12:55:07.247Z,19.68
2023-03-16T12:56:12.635Z,19.67
2023-03-16T12:57:17.194Z,19.74
2023-03-16T12:58:19.258Z,18.76
2023-03-16T12:59:25.783Z,18.73
2023-03-16T13:00:40.592Z,19.16
2023-03-16T13:01:44.823Z,17.98
2023-03-16T13:02:59.777Z,17.58
2023-03-16T13:04:30.358Z,18.57
2023-03-16T13:05:36.085Z,18.48
2023-03-16T13:06:44.449Z,18.89
2023-03-16T13:07:49.946Z,18.81
2023-03-16T13:08:59.800Z,18.85
2023-03-16T13:10:14.825Z,19.17
2023-03-16T13:11:17.709Z,19.06
2023-03-16T13:12:28.685Z,18.29
2023-03-16T13:13:31.085Z,17.78
2023-03-16T13:14:42.648Z,17.78
2023-03-16T13:15:47.574Z,18.55
2023-03-16T13:16:50.858Z,18.50
2023-03-16T13:18:14.916Z,18.33
2023-03-16T13:19:19.904Z,18.31
2023-03-16T13:20:32.550Z,18.42
2023-03-16T13:21:40.173Z,18.42
2023-03-16T13:22:45.315Z,17.75
2023-03-16T13:23:59.608Z,18.22
2023-03-16T13:25:28.684Z,18.31
2023-03-16T13:26:50.029Z,19.05
2023-03-16T13:27:55.846Z,18.95
2023-03-16T13:28:58.773Z,18.55
2023-03-16T13:30:15.609Z,18.47
2023-03-16T13:31:46.752Z,18.53
2023-03-16T13:32:53.150Z,18.73
2023-03-16T13:33:59.952Z,18.60
2023-03-16T13:35:05.907Z,18.96
2023-03-16T13:36:08.193Z,18.65
2023-03-16T13:37:15.119Z,19.16
2023-03-16T13:38:20.020Z,19.07
2023-03-16T13:39:24.258Z,18.64
2023-03-16T13:40:27.938Z,19.17
2023-03-16T13:41:30.711Z,18.54
2023-03-16T13:42:33.790Z,17.98
2023-03-16T13:43:41.743Z,18.95
2023-03-16T13:44:44.613Z,18.86
2023-03-16T13:45:47.086Z,18.99
2023-03-16T13:46:50.825Z,19.53
2023-03-16T13:47:53.512Z,20.05
2023-03-16T13:48:58.569Z,19.05
2023-03-16T13:50:00.841Z,19.07
2023-03-16T13:51:03.219Z,19.06
2023-03-16T13:52:05.981Z,20.25
2023-03-16T13:53:18.578Z,19.90
2023-03-16T13:54:31.020Z,35.16
2023-03-16T13:55:36.632Z,20.20
2023-03-16T13:56:40.168Z,18.79
2023-03-16T13:57:45.144Z,26.01
2023-03-16T13:58:52.185Z,20.40
2023-03-16T14:00:15.762Z,18.42
2023-03-16T14:01:32.070Z,18.55
2023-03-16T14:02:42.633Z,19.18
2023-03-16T14:03:44.610Z,19.22
2023-03-16T14:04:47.160Z,19.71
2023-03-16T14:05:49.617Z,19.65
2023-03-16T14:06:55.061Z,18.93
2023-03-16T14:07:59.433Z,18.55
2023-03-16T14:09:04.932Z,18.37
2023-03-16T14:10:11.480Z,18.77
2023-03-16T14:11:13.514Z,19.52